sensor_id;sensor_type;location;lat;lon;timestamp;temperature;humidity
4425;DHT22;2225;53.568;13.266;2023-12-20T00:02:15;10.80;99.90
4425;DHT22;2225;53.568;13.266;2023-12-20T00:04:42;10.80;99.90
4425;DHT22;2225;53.568;13.266;2023-12-20T00:07:09;10.80;99.90
4425;DHT22;2225;53.568;13.266;2023-12-20T00:09:36;10.80;99.90
4425;DHT22;2225;53.568;13.266;2023-12-20T00:12:03;10.70;99.90
4425;DHT22;2225;53.568;13.266;2023-12-20T00:14:30;10.70;99.90
4425;DHT22;2225;53.568;13.266;2023-12-20T00:16:57;10.70;99.90
4425;DHT22;2225;53.568;13.266;2023-12-20T00:19:24;10.70;99.90
4425;DHT22;2225;53.568;13.266;2023-12-20T00:21:51;10.70;99.90
4425;DHT22;2225;53.568;13.266;2023-12-20T00:24:18;10.70;99.90
4425;DHT22;2225;53.568;13.266;2023-12-20T00:26:45;10.70;99.90
4425;DHT22;2225;53.568;13.266;2023-12-20T00:29:12;10.70;99.90
4425;DHT22;2225;53.568;13.266;2023-12-20T00:31:39;10.70;99.90
4425;DHT22;2225;53.568;13.266;2023-12-20T00:34:06;10.70;99.90
4425;DHT22;2225;53.568;13.266;2023-12-20T00:36:33;10.70;99.90
4425;DHT22;2225;53.568;13.266;2023-12-20T00:39:00;10.70;99.90
4425;DHT22;2225;53.568;13.266;2023-12-20T00:41:27;10.70;99.90
4425;DHT22;2225;53.568;13.266;2023-12-20T00:43:54;10.70;99.90
4425;DHT22;2225;53.568;13.266;2023-12-20T00:46:21;10.70;99.90
4425;DHT22;2225;53.568;13.266;2023-12-20T00:48:48;10.70;99.90
4425;DHT22;2225;53.568;13.266;2023-12-20T00:51:15;10.70;99.90
4425;DHT22;2225;53.568;13.266;2023-12-20T00:53:42;10.80;99.90
4425;DHT22;2225;53.568;13.266;2023-12-20T00:56:10;10.80;99.90
4425;DHT22;2225;53.568;13.266;2023-12-20T00:58:36;10.80;99.90
4425;DHT22;2225;53.568;13.266;2023-12-20T01:01:03;10.80;99.90
4425;DHT22;2225;53.568;13.266;2023-12-20T01:03:30;10.70;99.90
4425;DHT22;2225;53.568;13.266;2023-12-20T01:05:58;10.70;99.90
4425;DHT22;2225;53.568;13.266;2023-12-20T01:08:25;10.70;99.90
4425;DHT22;2225;53.568;13.266;2023-12-20T01:10:52;10.80;99.90
4425;DHT22;2225;53.568;13.266;2023-12-20T01:13:18;10.80;99.90
4425;DHT22;2225;53.568;13.266;2023-12-20T01:15:46;10.80;99.90
4425;DHT22;2225;53.568;13.266;2023-12-20T01:18:14;10.80;99.90
4425;DHT22;2225;53.568;13.266;2023-12-20T01:20:41;10.70;99.90
4425;DHT22;2225;53.568;13.266;2023-12-20T01:23:08;10.70;99.90
4425;DHT22;2225;53.568;13.266;2023-12-20T01:25:35;10.70;99.90
4425;DHT22;2225;53.568;13.266;2023-12-20T01:28:02;10.70;99.90
4425;DHT22;2225;53.568;13.266;2023-12-20T01:30:29;10.60;99.90
4425;DHT22;2225;53.568;13.266;2023-12-20T01:32:56;10.60;99.90
4425;DHT22;2225;53.568;13.266;2023-12-20T01:35:23;10.60;99.90
4425;DHT22;2225;53.568;13.266;2023-12-20T01:37:50;10.50;99.90
4425;DHT22;2225;53.568;13.266;2023-12-20T01:40:18;10.50;99.90
4425;DHT22;2225;53.568;13.266;2023-12-20T01:42:46;10.50;99.90
4425;DHT22;2225;53.568;13.266;2023-12-20T01:45:13;10.50;99.90
4425;DHT22;2225;53.568;13.266;2023-12-20T01:47:40;10.40;99.90
4425;DHT22;2225;53.568;13.266;2023-12-20T01:50:08;10.40;99.90
4425;DHT22;2225;53.568;13.266;2023-12-20T01:52:35;10.30;99.90
4425;DHT22;2225;53.568;13.266;2023-12-20T01:55:04;10.30;99.90
4425;DHT22;2225;53.568;13.266;2023-12-20T01:57:37;10.30;99.90
4425;DHT22;2225;53.568;13.266;2023-12-20T02:00:05;10.30;99.90
4425;DHT22;2225;53.568;13.266;2023-12-20T02:02:33;10.20;99.90
4425;DHT22;2225;53.568;13.266;2023-12-20T02:05:00;10.20;99.90
4425;DHT22;2225;53.568;13.266;2023-12-20T02:07:29;10.20;99.90
4425;DHT22;2225;53.568;13.266;2023-12-20T02:09:57;10.30;99.90
4425;DHT22;2225;53.568;13.266;2023-12-20T02:12:24;10.20;99.90
4425;DHT22;2225;53.568;13.266;2023-12-20T02:14:51;10.10;99.90
4425;DHT22;2225;53.568;13.266;2023-12-20T02:17:18;10.10;99.90
4425;DHT22;2225;53.568;13.266;2023-12-20T02:19:45;10.10;99.90
4425;DHT22;2225;53.568;13.266;2023-12-20T02:22:13;10.10;99.90
4425;DHT22;2225;53.568;13.266;2023-12-20T02:24:40;10.10;99.90
4425;DHT22;2225;53.568;13.266;2023-12-20T02:27:08;10.00;99.90
4425;DHT22;2225;53.568;13.266;2023-12-20T02:29:35;10.00;99.90
4425;DHT22;2225;53.568;13.266;2023-12-20T02:32:02;9.90;99.90
4425;DHT22;2225;53.568;13.266;2023-12-20T02:34:29;9.90;99.90
4425;DHT22;2225;53.568;13.266;2023-12-20T02:36:56;9.90;99.90
4425;DHT22;2225;53.568;13.266;2023-12-20T02:39:23;9.90;99.90
4425;DHT22;2225;53.568;13.266;2023-12-20T02:41:50;9.80;99.90
4425;DHT22;2225;53.568;13.266;2023-12-20T02:44:17;9.80;99.90
4425;DHT22;2225;53.568;13.266;2023-12-20T02:46:44;9.80;99.90
4425;DHT22;2225;53.568;13.266;2023-12-20T02:49:11;9.70;99.90
4425;DHT22;2225;53.568;13.266;2023-12-20T02:51:38;9.70;99.90
4425;DHT22;2225;53.568;13.266;2023-12-20T02:54:06;9.70;99.90
4425;DHT22;2225;53.568;13.266;2023-12-20T02:56:33;9.60;99.90
4425;DHT22;2225;53.568;13.266;2023-12-20T02:59:00;9.60;99.90
4425;DHT22;2225;53.568;13.266;2023-12-20T03:01:28;9.60;99.90
4425;DHT22;2225;53.568;13.266;2023-12-20T03:03:56;9.60;99.90
4425;DHT22;2225;53.568;13.266;2023-12-20T03:06:23;9.50;99.90
4425;DHT22;2225;53.568;13.266;2023-12-20T03:08:50;9.50;99.90
4425;DHT22;2225;53.568;13.266;2023-12-20T03:11:17;9.40;99.90
4425;DHT22;2225;53.568;13.266;2023-12-20T03:13:44;9.40;99.90
4425;DHT22;2225;53.568;13.266;2023-12-20T03:16:12;9.40;99.90
4425;DHT22;2225;53.568;13.266;2023-12-20T03:18:39;9.30;99.90
4425;DHT22;2225;53.568;13.266;2023-12-20T03:21:07;9.30;99.90
4425;DHT22;2225;53.568;13.266;2023-12-20T03:23:33;9.30;99.90
4425;DHT22;2225;53.568;13.266;2023-12-20T03:26:00;9.30;99.90
4425;DHT22;2225;53.568;13.266;2023-12-20T03:28:27;9.20;99.90
4425;DHT22;2225;53.568;13.266;2023-12-20T03:30:55;9.20;99.90
4425;DHT22;2225;53.568;13.266;2023-12-20T03:33:22;9.20;99.90
4425;DHT22;2225;53.568;13.266;2023-12-20T03:35:49;9.20;99.90
4425;DHT22;2225;53.568;13.266;2023-12-20T03:38:16;9.10;99.90
4425;DHT22;2225;53.568;13.266;2023-12-20T03:40:43;9.10;99.90
4425;DHT22;2225;53.568;13.266;2023-12-20T03:43:10;9.10;99.90
4425;DHT22;2225;53.568;13.266;2023-12-20T03:45:37;9.10;99.90
4425;DHT22;2225;53.568;13.266;2023-12-20T03:48:04;9.10;99.90
4425;DHT22;2225;53.568;13.266;2023-12-20T03:50:32;9.10;99.90
4425;DHT22;2225;53.568;13.266;2023-12-20T03:52:59;9.10;99.90
4425;DHT22;2225;53.568;13.266;2023-12-20T03:55:26;9.10;99.90
4425;DHT22;2225;53.568;13.266;2023-12-20T03:57:53;9.10;99.90
4425;DHT22;2225;53.568;13.266;2023-12-20T04:00:20;9.10;99.90
4425;DHT22;2225;53.568;13.266;2023-12-20T04:02:47;9.10;99.90
4425;DHT22;2225;53.568;13.266;2023-12-20T04:05:14;9.10;99.90
4425;DHT22;2225;53.568;13.266;2023-12-20T04:07:41;9.10;99.90
4425;DHT22;2225;53.568;13.266;2023-12-20T04:10:09;9.10;99.90
4425;DHT22;2225;53.568;13.266;2023-12-20T04:12:36;9.10;99.90
4425;DHT22;2225;53.568;13.266;2023-12-20T04:15:03;9.10;99.90
4425;DHT22;2225;53.568;13.266;2023-12-20T04:17:35;9.10;99.90
4425;DHT22;2225;53.568;13.266;2023-12-20T04:20:03;9.20;99.90
4425;DHT22;2225;53.568;13.266;2023-12-20T04:22:31;9.20;99.90
4425;DHT22;2225;53.568;13.266;2023-12-20T04:24:58;9.20;99.90
4425;DHT22;2225;53.568;13.266;2023-12-20T04:27:25;9.20;99.90
4425;DHT22;2225;53.568;13.266;2023-12-20T04:29:52;9.30;99.90
4425;DHT22;2225;53.568;13.266;2023-12-20T04:32:19;9.30;99.90
4425;DHT22;2225;53.568;13.266;2023-12-20T04:34:45;9.40;99.90
4425;DHT22;2225;53.568;13.266;2023-12-20T04:37:12;9.40;99.90
4425;DHT22;2225;53.568;13.266;2023-12-20T04:39:39;9.40;99.90
4425;DHT22;2225;53.568;13.266;2023-12-20T04:42:08;9.50;99.90
4425;DHT22;2225;53.568;13.266;2023-12-20T04:44:35;9.50;99.90
4425;DHT22;2225;53.568;13.266;2023-12-20T04:47:02;9.50;99.90
4425;DHT22;2225;53.568;13.266;2023-12-20T04:49:29;9.50;99.90
4425;DHT22;2225;53.568;13.266;2023-12-20T04:51:56;9.50;99.90
4425;DHT22;2225;53.568;13.266;2023-12-20T04:54:23;9.50;99.90
4425;DHT22;2225;53.568;13.266;2023-12-20T04:56:50;9.50;99.90
4425;DHT22;2225;53.568;13.266;2023-12-20T04:59:17;9.50;99.90
4425;DHT22;2225;53.568;13.266;2023-12-20T05:01:44;9.50;99.90
4425;DHT22;2225;53.568;13.266;2023-12-20T05:04:11;9.60;99.90
4425;DHT22;2225;53.568;13.266;2023-12-20T05:06:39;9.60;99.90
4425;DHT22;2225;53.568;13.266;2023-12-20T05:09:06;9.60;99.90
4425;DHT22;2225;53.568;13.266;2023-12-20T05:11:33;9.50;99.90
4425;DHT22;2225;53.568;13.266;2023-12-20T05:14:00;9.50;99.90
4425;DHT22;2225;53.568;13.266;2023-12-20T05:16:27;9.60;99.90
4425;DHT22;2225;53.568;13.266;2023-12-20T05:18:54;9.50;99.90
4425;DHT22;2225;53.568;13.266;2023-12-20T05:21:21;9.50;99.90
4425;DHT22;2225;53.568;13.266;2023-12-20T05:23:48;9.50;99.90
4425;DHT22;2225;53.568;13.266;2023-12-20T05:26:15;9.50;99.90
4425;DHT22;2225;53.568;13.266;2023-12-20T05:28:41;9.50;99.90
4425;DHT22;2225;53.568;13.266;2023-12-20T05:31:08;9.50;99.90
4425;DHT22;2225;53.568;13.266;2023-12-20T05:33:35;9.50;99.90
4425;DHT22;2225;53.568;13.266;2023-12-20T05:36:03;9.60;99.90
4425;DHT22;2225;53.568;13.266;2023-12-20T05:38:30;9.60;99.90
4425;DHT22;2225;53.568;13.266;2023-12-20T05:40:57;9.60;99.90
4425;DHT22;2225;53.568;13.266;2023-12-20T05:43:24;9.60;99.90
4425;DHT22;2225;53.568;13.266;2023-12-20T05:45:51;9.70;99.90
4425;DHT22;2225;53.568;13.266;2023-12-20T05:48:18;9.60;99.90
4425;DHT22;2225;53.568;13.266;2023-12-20T05:50:45;9.60;99.90
4425;DHT22;2225;53.568;13.266;2023-12-20T05:53:12;9.70;99.90
4425;DHT22;2225;53.568;13.266;2023-12-20T05:55:39;9.60;99.90
4425;DHT22;2225;53.568;13.266;2023-12-20T05:58:06;9.70;99.90
4425;DHT22;2225;53.568;13.266;2023-12-20T06:00:33;9.70;99.90
4425;DHT22;2225;53.568;13.266;2023-12-20T06:03:00;9.70;99.90
4425;DHT22;2225;53.568;13.266;2023-12-20T06:05:27;9.70;99.90
4425;DHT22;2225;53.568;13.266;2023-12-20T06:07:54;9.70;99.90
4425;DHT22;2225;53.568;13.266;2023-12-20T06:10:23;9.70;99.90
4425;DHT22;2225;53.568;13.266;2023-12-20T06:12:50;9.70;99.90
4425;DHT22;2225;53.568;13.266;2023-12-20T06:15:18;9.70;99.90
4425;DHT22;2225;53.568;13.266;2023-12-20T06:17:45;9.70;99.90
4425;DHT22;2225;53.568;13.266;2023-12-20T06:20:14;9.70;99.90
4425;DHT22;2225;53.568;13.266;2023-12-20T06:22:41;9.70;99.90
4425;DHT22;2225;53.568;13.266;2023-12-20T06:25:08;9.70;99.90
4425;DHT22;2225;53.568;13.266;2023-12-20T06:27:35;9.70;99.90
4425;DHT22;2225;53.568;13.266;2023-12-20T06:30:03;9.70;99.90
4425;DHT22;2225;53.568;13.266;2023-12-20T06:32:30;9.70;99.90
4425;DHT22;2225;53.568;13.266;2023-12-20T06:34:57;9.70;99.90
4425;DHT22;2225;53.568;13.266;2023-12-20T06:37:24;9.70;99.90
4425;DHT22;2225;53.568;13.266;2023-12-20T06:39:51;9.80;99.90
4425;DHT22;2225;53.568;13.266;2023-12-20T06:42:18;9.80;99.90
4425;DHT22;2225;53.568;13.266;2023-12-20T06:44:45;9.70;99.90
4425;DHT22;2225;53.568;13.266;2023-12-20T06:47:12;9.70;99.90
4425;DHT22;2225;53.568;13.266;2023-12-20T06:49:40;9.70;99.90
4425;DHT22;2225;53.568;13.266;2023-12-20T06:52:07;9.80;99.90
4425;DHT22;2225;53.568;13.266;2023-12-20T06:54:35;9.90;99.90
4425;DHT22;2225;53.568;13.266;2023-12-20T06:57:02;9.80;99.90
4425;DHT22;2225;53.568;13.266;2023-12-20T06:59:30;9.80;99.90
4425;DHT22;2225;53.568;13.266;2023-12-20T07:01:57;9.80;99.90
4425;DHT22;2225;53.568;13.266;2023-12-20T07:04:24;9.80;99.90
4425;DHT22;2225;53.568;13.266;2023-12-20T07:06:51;9.80;99.90
4425;DHT22;2225;53.568;13.266;2023-12-20T07:09:20;9.80;99.90
4425;DHT22;2225;53.568;13.266;2023-12-20T07:11:47;9.80;99.90
4425;DHT22;2225;53.568;13.266;2023-12-20T07:14:14;9.80;99.90
4425;DHT22;2225;53.568;13.266;2023-12-20T07:16:41;9.80;99.90
4425;DHT22;2225;53.568;13.266;2023-12-20T07:19:08;9.80;99.90
4425;DHT22;2225;53.568;13.266;2023-12-20T07:21:35;9.80;99.90
4425;DHT22;2225;53.568;13.266;2023-12-20T07:24:02;9.70;99.90
4425;DHT22;2225;53.568;13.266;2023-12-20T07:26:29;9.80;99.90
4425;DHT22;2225;53.568;13.266;2023-12-20T07:28:56;9.80;99.90
4425;DHT22;2225;53.568;13.266;2023-12-20T07:31:25;9.80;99.90
4425;DHT22;2225;53.568;13.266;2023-12-20T07:33:52;9.80;99.90
4425;DHT22;2225;53.568;13.266;2023-12-20T07:36:19;9.70;99.90
4425;DHT22;2225;53.568;13.266;2023-12-20T07:38:47;9.80;99.90
4425;DHT22;2225;53.568;13.266;2023-12-20T07:41:14;9.70;99.90
4425;DHT22;2225;53.568;13.266;2023-12-20T07:43:47;9.70;99.90
4425;DHT22;2225;53.568;13.266;2023-12-20T07:46:14;9.70;99.90
4425;DHT22;2225;53.568;13.266;2023-12-20T07:48:41;9.70;99.90
4425;DHT22;2225;53.568;13.266;2023-12-20T07:51:11;9.70;99.90
4425;DHT22;2225;53.568;13.266;2023-12-20T07:53:38;9.70;99.90
4425;DHT22;2225;53.568;13.266;2023-12-20T07:56:18;9.70;99.90
4425;DHT22;2225;53.568;13.266;2023-12-20T07:58:46;9.70;99.90
4425;DHT22;2225;53.568;13.266;2023-12-20T08:01:19;9.70;99.90
4425;DHT22;2225;53.568;13.266;2023-12-20T08:03:48;9.70;99.90
4425;DHT22;2225;53.568;13.266;2023-12-20T08:06:16;9.70;99.90
4425;DHT22;2225;53.568;13.266;2023-12-20T08:08:44;9.70;99.90
4425;DHT22;2225;53.568;13.266;2023-12-20T08:11:11;9.70;99.90
4425;DHT22;2225;53.568;13.266;2023-12-20T08:13:38;9.70;99.90
4425;DHT22;2225;53.568;13.266;2023-12-20T08:16:05;9.70;99.90
4425;DHT22;2225;53.568;13.266;2023-12-20T08:18:32;9.70;99.90
4425;DHT22;2225;53.568;13.266;2023-12-20T08:21:00;9.70;99.90
4425;DHT22;2225;53.568;13.266;2023-12-20T08:23:28;9.70;99.90
4425;DHT22;2225;53.568;13.266;2023-12-20T08:25:58;9.70;99.90
4425;DHT22;2225;53.568;13.266;2023-12-20T08:28:25;9.70;99.90
4425;DHT22;2225;53.568;13.266;2023-12-20T08:30:52;9.70;99.90
4425;DHT22;2225;53.568;13.266;2023-12-20T08:33:20;9.70;99.90
4425;DHT22;2225;53.568;13.266;2023-12-20T08:35:47;9.70;99.90
4425;DHT22;2225;53.568;13.266;2023-12-20T08:38:15;9.70;99.90
4425;DHT22;2225;53.568;13.266;2023-12-20T08:40:43;9.70;99.90
4425;DHT22;2225;53.568;13.266;2023-12-20T08:43:10;9.70;99.90
4425;DHT22;2225;53.568;13.266;2023-12-20T08:45:38;9.70;99.90
4425;DHT22;2225;53.568;13.266;2023-12-20T08:48:05;9.70;99.90
4425;DHT22;2225;53.568;13.266;2023-12-20T08:50:35;9.70;99.90
4425;DHT22;2225;53.568;13.266;2023-12-20T08:53:03;9.70;99.90
4425;DHT22;2225;53.568;13.266;2023-12-20T08:55:30;9.70;99.90
4425;DHT22;2225;53.568;13.266;2023-12-20T08:57:58;9.60;99.90
4425;DHT22;2225;53.568;13.266;2023-12-20T09:00:25;9.70;99.90
4425;DHT22;2225;53.568;13.266;2023-12-20T09:02:54;9.60;99.90
4425;DHT22;2225;53.568;13.266;2023-12-20T09:05:21;9.70;99.90
4425;DHT22;2225;53.568;13.266;2023-12-20T09:07:49;9.70;99.90
4425;DHT22;2225;53.568;13.266;2023-12-20T09:10:16;9.80;99.90
4425;DHT22;2225;53.568;13.266;2023-12-20T09:12:50;9.70;99.90
4425;DHT22;2225;53.568;13.266;2023-12-20T09:15:18;9.80;99.90
4425;DHT22;2225;53.568;13.266;2023-12-20T09:17:45;9.80;99.90
4425;DHT22;2225;53.568;13.266;2023-12-20T09:20:12;9.90;99.90
4425;DHT22;2225;53.568;13.266;2023-12-20T09:22:40;9.80;99.90
4425;DHT22;2225;53.568;13.266;2023-12-20T09:25:09;9.90;99.90
4425;DHT22;2225;53.568;13.266;2023-12-20T09:27:37;9.90;99.90
4425;DHT22;2225;53.568;13.266;2023-12-20T09:30:04;10.00;99.90
4425;DHT22;2225;53.568;13.266;2023-12-20T09:32:32;10.00;99.90
4425;DHT22;2225;53.568;13.266;2023-12-20T09:34:59;10.10;99.90
4425;DHT22;2225;53.568;13.266;2023-12-20T09:37:27;10.10;99.90
4425;DHT22;2225;53.568;13.266;2023-12-20T09:39:54;10.10;99.90
4425;DHT22;2225;53.568;13.266;2023-12-20T09:42:29;10.10;99.70
4425;DHT22;2225;53.568;13.266;2023-12-20T09:45:08;10.10;99.60
4425;DHT22;2225;53.568;13.266;2023-12-20T09:47:36;10.10;99.40
4425;DHT22;2225;53.568;13.266;2023-12-20T09:50:04;10.10;99.60
4425;DHT22;2225;53.568;13.266;2023-12-20T09:52:32;10.20;99.50
4425;DHT22;2225;53.568;13.266;2023-12-20T09:55:01;10.20;99.40
4425;DHT22;2225;53.568;13.266;2023-12-20T09:57:32;10.20;99.50
4425;DHT22;2225;53.568;13.266;2023-12-20T09:59:59;10.20;99.20
4425;DHT22;2225;53.568;13.266;2023-12-20T10:02:27;10.20;99.20
4425;DHT22;2225;53.568;13.266;2023-12-20T10:04:54;10.20;99.20
4425;DHT22;2225;53.568;13.266;2023-12-20T10:07:22;10.20;99.20
4425;DHT22;2225;53.568;13.266;2023-12-20T10:09:51;10.20;99.20
4425;DHT22;2225;53.568;13.266;2023-12-20T10:12:20;10.30;99.20
4425;DHT22;2225;53.568;13.266;2023-12-20T10:14:47;10.20;99.10
4425;DHT22;2225;53.568;13.266;2023-12-20T10:17:14;10.20;99.10
4425;DHT22;2225;53.568;13.266;2023-12-20T10:19:43;10.20;99.30
4425;DHT22;2225;53.568;13.266;2023-12-20T10:22:10;10.20;99.40
4425;DHT22;2225;53.568;13.266;2023-12-20T10:24:37;10.20;99.40
4425;DHT22;2225;53.568;13.266;2023-12-20T10:27:05;10.30;99.50
4425;DHT22;2225;53.568;13.266;2023-12-20T10:29:34;10.30;99.40
4425;DHT22;2225;53.568;13.266;2023-12-20T10:32:22;10.30;99.40
4425;DHT22;2225;53.568;13.266;2023-12-20T10:34:51;10.30;99.40
4425;DHT22;2225;53.568;13.266;2023-12-20T10:37:19;10.20;99.50
4425;DHT22;2225;53.568;13.266;2023-12-20T10:39:51;10.20;99.60
4425;DHT22;2225;53.568;13.266;2023-12-20T10:42:26;10.20;99.70
4425;DHT22;2225;53.568;13.266;2023-12-20T10:44:53;10.20;99.90
4425;DHT22;2225;53.568;13.266;2023-12-20T10:47:21;10.20;99.90
4425;DHT22;2225;53.568;13.266;2023-12-20T10:49:48;10.30;99.90
4425;DHT22;2225;53.568;13.266;2023-12-20T10:52:16;10.30;99.90
4425;DHT22;2225;53.568;13.266;2023-12-20T10:54:44;10.30;99.70
4425;DHT22;2225;53.568;13.266;2023-12-20T10:57:11;10.40;99.60
4425;DHT22;2225;53.568;13.266;2023-12-20T10:59:39;10.40;99.50
4425;DHT22;2225;53.568;13.266;2023-12-20T11:02:06;10.40;99.40
4425;DHT22;2225;53.568;13.266;2023-12-20T11:04:59;10.40;99.40
4425;DHT22;2225;53.568;13.266;2023-12-20T11:07:50;10.50;99.30
4425;DHT22;2225;53.568;13.266;2023-12-20T11:10:24;10.50;99.20
4425;DHT22;2225;53.568;13.266;2023-12-20T11:13:12;10.50;99.00
4425;DHT22;2225;53.568;13.266;2023-12-20T11:15:51;10.50;99.00
4425;DHT22;2225;53.568;13.266;2023-12-20T11:18:18;10.50;99.00
4425;DHT22;2225;53.568;13.266;2023-12-20T11:20:45;10.50;98.90
4425;DHT22;2225;53.568;13.266;2023-12-20T11:23:13;10.50;98.80
4425;DHT22;2225;53.568;13.266;2023-12-20T11:25:55;10.50;98.90
4425;DHT22;2225;53.568;13.266;2023-12-20T11:28:26;10.50;98.80
4425;DHT22;2225;53.568;13.266;2023-12-20T11:30:55;10.50;99.00
4425;DHT22;2225;53.568;13.266;2023-12-20T11:33:38;10.50;98.90
4425;DHT22;2225;53.568;13.266;2023-12-20T11:36:13;10.40;98.90
4425;DHT22;2225;53.568;13.266;2023-12-20T11:38:56;10.40;99.10
4425;DHT22;2225;53.568;13.266;2023-12-20T11:41:24;10.40;99.20
4425;DHT22;2225;53.568;13.266;2023-12-20T11:43:55;10.40;99.30
4425;DHT22;2225;53.568;13.266;2023-12-20T11:46:23;10.40;99.40
4425;DHT22;2225;53.568;13.266;2023-12-20T11:48:50;10.40;99.20
4425;DHT22;2225;53.568;13.266;2023-12-20T11:51:18;10.30;99.10
4425;DHT22;2225;53.568;13.266;2023-12-20T11:53:45;10.30;99.30
4425;DHT22;2225;53.568;13.266;2023-12-20T11:56:12;10.30;99.40
4425;DHT22;2225;53.568;13.266;2023-12-20T11:58:39;10.30;99.40
4425;DHT22;2225;53.568;13.266;2023-12-20T12:01:06;10.20;99.40
4425;DHT22;2225;53.568;13.266;2023-12-20T12:03:35;10.20;99.60
4425;DHT22;2225;53.568;13.266;2023-12-20T12:06:02;10.20;99.70
4425;DHT22;2225;53.568;13.266;2023-12-20T12:08:32;10.20;99.60
4425;DHT22;2225;53.568;13.266;2023-12-20T12:10:59;10.20;99.70
4425;DHT22;2225;53.568;13.266;2023-12-20T12:13:26;10.20;99.80
4425;DHT22;2225;53.568;13.266;2023-12-20T12:15:54;10.20;99.80
4425;DHT22;2225;53.568;13.266;2023-12-20T12:18:22;10.20;99.80
4425;DHT22;2225;53.568;13.266;2023-12-20T12:20:49;10.10;99.80
4425;DHT22;2225;53.568;13.266;2023-12-20T12:23:23;10.20;99.90
4425;DHT22;2225;53.568;13.266;2023-12-20T12:25:51;10.10;99.90
4425;DHT22;2225;53.568;13.266;2023-12-20T12:28:18;10.10;99.80
4425;DHT22;2225;53.568;13.266;2023-12-20T12:30:58;10.10;99.60
4425;DHT22;2225;53.568;13.266;2023-12-20T12:33:26;10.00;99.70
4425;DHT22;2225;53.568;13.266;2023-12-20T12:35:54;10.00;99.60
4425;DHT22;2225;53.568;13.266;2023-12-20T12:38:22;10.00;99.30
4425;DHT22;2225;53.568;13.266;2023-12-20T12:40:49;10.00;99.20
4425;DHT22;2225;53.568;13.266;2023-12-20T12:43:17;10.00;99.00
4425;DHT22;2225;53.568;13.266;2023-12-20T12:45:44;10.00;98.70
4425;DHT22;2225;53.568;13.266;2023-12-20T12:48:11;9.90;98.30
4425;DHT22;2225;53.568;13.266;2023-12-20T12:50:38;9.90;98.30
4425;DHT22;2225;53.568;13.266;2023-12-20T12:53:05;9.90;98.10
4425;DHT22;2225;53.568;13.266;2023-12-20T12:55:33;9.80;97.20
4425;DHT22;2225;53.568;13.266;2023-12-20T12:58:01;9.80;97.40
4425;DHT22;2225;53.568;13.266;2023-12-20T13:00:28;9.80;97.40
4425;DHT22;2225;53.568;13.266;2023-12-20T13:02:55;9.70;97.30
4425;DHT22;2225;53.568;13.266;2023-12-20T13:05:22;9.70;97.30
4425;DHT22;2225;53.568;13.266;2023-12-20T13:07:49;9.70;97.40
4425;DHT22;2225;53.568;13.266;2023-12-20T13:10:16;9.70;97.30
4425;DHT22;2225;53.568;13.266;2023-12-20T13:12:44;9.70;96.80
4425;DHT22;2225;53.568;13.266;2023-12-20T13:15:11;9.60;97.00
4425;DHT22;2225;53.568;13.266;2023-12-20T13:17:38;9.60;97.10
4425;DHT22;2225;53.568;13.266;2023-12-20T13:20:05;9.60;96.70
4425;DHT22;2225;53.568;13.266;2023-12-20T13:22:33;9.60;96.80
4425;DHT22;2225;53.568;13.266;2023-12-20T13:25:00;9.60;96.90
4425;DHT22;2225;53.568;13.266;2023-12-20T13:27:29;9.60;96.90
4425;DHT22;2225;53.568;13.266;2023-12-20T13:29:56;9.60;96.80
4425;DHT22;2225;53.568;13.266;2023-12-20T13:32:23;9.60;96.80
4425;DHT22;2225;53.568;13.266;2023-12-20T13:34:50;9.70;96.70
4425;DHT22;2225;53.568;13.266;2023-12-20T13:37:17;9.60;96.60
4425;DHT22;2225;53.568;13.266;2023-12-20T13:39:45;9.70;96.70
4425;DHT22;2225;53.568;13.266;2023-12-20T13:42:12;9.60;96.40
4425;DHT22;2225;53.568;13.266;2023-12-20T13:44:39;9.60;96.30
4425;DHT22;2225;53.568;13.266;2023-12-20T13:47:06;9.60;96.40
4425;DHT22;2225;53.568;13.266;2023-12-20T13:49:33;9.60;96.40
4425;DHT22;2225;53.568;13.266;2023-12-20T13:52:00;9.60;96.40
4425;DHT22;2225;53.568;13.266;2023-12-20T13:54:27;9.60;96.40
4425;DHT22;2225;53.568;13.266;2023-12-20T13:56:54;9.60;96.60
4425;DHT22;2225;53.568;13.266;2023-12-20T13:59:37;9.60;96.30
4425;DHT22;2225;53.568;13.266;2023-12-20T14:02:05;9.60;96.20
4425;DHT22;2225;53.568;13.266;2023-12-20T14:04:32;9.60;96.30
4425;DHT22;2225;53.568;13.266;2023-12-20T14:07:09;9.60;96.40
4425;DHT22;2225;53.568;13.266;2023-12-20T14:09:38;9.60;96.50
4425;DHT22;2225;53.568;13.266;2023-12-20T14:12:05;9.60;96.40
4425;DHT22;2225;53.568;13.266;2023-12-20T14:14:33;9.60;96.20
4425;DHT22;2225;53.568;13.266;2023-12-20T14:17:00;9.50;96.30
4425;DHT22;2225;53.568;13.266;2023-12-20T14:19:27;9.50;96.20
4425;DHT22;2225;53.568;13.266;2023-12-20T14:21:54;9.50;96.40
4425;DHT22;2225;53.568;13.266;2023-12-20T14:24:21;9.40;96.40
4425;DHT22;2225;53.568;13.266;2023-12-20T14:26:48;9.40;96.70
4425;DHT22;2225;53.568;13.266;2023-12-20T14:29:15;9.40;96.60
4425;DHT22;2225;53.568;13.266;2023-12-20T14:31:42;9.40;96.50
4425;DHT22;2225;53.568;13.266;2023-12-20T14:34:09;9.40;96.60
4425;DHT22;2225;53.568;13.266;2023-12-20T14:36:36;9.40;96.80
4425;DHT22;2225;53.568;13.266;2023-12-20T14:39:04;9.40;96.70
4425;DHT22;2225;53.568;13.266;2023-12-20T14:41:31;9.30;96.80
4425;DHT22;2225;53.568;13.266;2023-12-20T14:43:58;9.30;96.80
4425;DHT22;2225;53.568;13.266;2023-12-20T14:46:27;9.30;96.80
4425;DHT22;2225;53.568;13.266;2023-12-20T14:48:55;9.30;96.60
4425;DHT22;2225;53.568;13.266;2023-12-20T14:51:22;9.20;96.50
4425;DHT22;2225;53.568;13.266;2023-12-20T14:53:49;9.20;96.50
4425;DHT22;2225;53.568;13.266;2023-12-20T14:56:16;9.20;96.60
4425;DHT22;2225;53.568;13.266;2023-12-20T14:58:43;9.20;96.60
4425;DHT22;2225;53.568;13.266;2023-12-20T15:01:10;9.20;96.80
4425;DHT22;2225;53.568;13.266;2023-12-20T15:03:37;9.10;96.90
4425;DHT22;2225;53.568;13.266;2023-12-20T15:06:06;9.10;97.10
4425;DHT22;2225;53.568;13.266;2023-12-20T15:08:34;9.10;97.10
4425;DHT22;2225;53.568;13.266;2023-12-20T15:11:01;9.10;97.10
4425;DHT22;2225;53.568;13.266;2023-12-20T15:13:30;9.10;97.00
4425;DHT22;2225;53.568;13.266;2023-12-20T15:15:58;9.10;97.00
4425;DHT22;2225;53.568;13.266;2023-12-20T15:18:26;9.00;96.90
4425;DHT22;2225;53.568;13.266;2023-12-20T15:20:53;9.00;96.90
4425;DHT22;2225;53.568;13.266;2023-12-20T15:23:20;9.00;96.90
4425;DHT22;2225;53.568;13.266;2023-12-20T15:25:48;8.90;96.90
4425;DHT22;2225;53.568;13.266;2023-12-20T15:28:15;8.90;97.00
4425;DHT22;2225;53.568;13.266;2023-12-20T15:30:42;8.80;97.00
4425;DHT22;2225;53.568;13.266;2023-12-20T15:33:09;8.80;97.10
4425;DHT22;2225;53.568;13.266;2023-12-20T15:35:36;8.80;97.10
4425;DHT22;2225;53.568;13.266;2023-12-20T15:38:03;8.70;97.40
4425;DHT22;2225;53.568;13.266;2023-12-20T15:40:31;8.70;96.80
4425;DHT22;2225;53.568;13.266;2023-12-20T15:42:58;8.70;96.60
4425;DHT22;2225;53.568;13.266;2023-12-20T15:45:26;8.60;96.50
4425;DHT22;2225;53.568;13.266;2023-12-20T15:47:53;8.60;96.60
4425;DHT22;2225;53.568;13.266;2023-12-20T15:50:20;8.60;96.70
4425;DHT22;2225;53.568;13.266;2023-12-20T15:52:47;8.50;96.70
4425;DHT22;2225;53.568;13.266;2023-12-20T15:55:14;8.50;96.80
4425;DHT22;2225;53.568;13.266;2023-12-20T15:57:41;8.50;97.20
4425;DHT22;2225;53.568;13.266;2023-12-20T16:00:20;8.50;97.40
4425;DHT22;2225;53.568;13.266;2023-12-20T16:02:47;8.50;97.50